Portknockie, United Kingdom
Current Conditions -  °F | °C
As of 6:50 AM on Wednesday 22 Oct 2014 (Local Time) from EGQS Reporting Station
Clear Clear  
Wind Chill:   Ceiling: Unl
Heat Index:   Visibility: 6mi
Dew Point:   Wind: 13mph
Humidity: 81%   Direction: 260°W
Pressure: 29.94"   Gusts: NA
Location:  57.7°N, 2.86°W
Report Text: EGQS 220550Z 26011KT CAVOK 07/04 Q1014 BLU NOSIG
Loading
Personal Weather Stations






























Interactive Weather Map
Tropical Storm Tracking
New forecast layout! Learn more

10-Day Weather Forecast

Advertisements
Track Severe Weather on mobile